Minden, Louisiana
Current Conditions -  °F | °C
As of 2:15 AM on Monday 26 Jan 2015 (Local Time) from KMNE Reporting Station
Clear Clear  
Wind Chill: 43°   Ceiling: Unl
Heat Index: 43°   Visibility: 10mi
Dew Point: 33°   Wind: 0mph
Humidity: 67%   Direction: NA
Pressure: 30.12"   Gusts: NA
Location:  32.62°N, 93.29°W
Report Text: KMNE 260815Z AUTO 00000KT 10SM CLR 06/00 A3012 RMK AO2 T00600003
Loading
Personal Weather Stations






























Interactive Weather Map New forecast layout! Learn more

10-Day Weather Forecast

Advertisements
Track Severe Weather on mobile